logo
Search for airport 
image banner adimage banner adimage banner ad
image banner ad

HAWR - Wardare

Located in Wardare, Ethiopia

ICAO - HAWR, IATA - WRA

Data provided by Airmate  

General information

Coordinates: N6°58'0" E45°20'0"
Elevation is 1850 feet MSL.
 
View others Airports in Somali

Operational data

Special qualification required
Current time UTC:
Current local time:
Weather at : - ( 0 km )
METAR: PAFS 162001Z AUTO 20004KT 7SM -RA FEW021 BKN047 OVC055 11/08 A2985 RMK AO2 RAB1945 SLP115 P0000 T01060083
View NOTAMs / SUP AIP / TFR affecting this airport [VIEW]
Communications frequencies: [VIEW]

Runways:

RWY identifierQFULength (ft)Width (ft)SurfaceLDA (ft)
0500UNK
2300UNK

Airport contact information

Address: Wardare Ethiopia

Satellite view of HAWR